sensor_id;sensor_type;location;lat;lon;timestamp;P1;durP1;ratioP1;P2;durP2;ratioP2
15929;SDS011;8064;51.142;4.780;2023-03-26T00:00:56;22.83;;;7.30;;
15929;SDS011;8064;51.142;4.780;2023-03-26T00:03:23;23.20;;;6.93;;
15929;SDS011;8064;51.142;4.780;2023-03-26T00:05:48;15.10;;;7.13;;
15929;SDS011;8064;51.142;4.780;2023-03-26T00:08:25;24.90;;;7.23;;
15929;SDS011;8064;51.142;4.780;2023-03-26T00:10:51;24.57;;;7.77;;
15929;SDS011;8064;51.142;4.780;2023-03-26T00:13:16;23.27;;;6.63;;
15929;SDS011;8064;51.142;4.780;2023-03-26T00:15:42;21.07;;;6.53;;
15929;SDS011;8064;51.142;4.780;2023-03-26T00:18:08;22.17;;;6.93;;
15929;SDS011;8064;51.142;4.780;2023-03-26T00:20:33;15.37;;;5.57;;
15929;SDS011;8064;51.142;4.780;2023-03-26T00:22:59;21.30;;;6.37;;
15929;SDS011;8064;51.142;4.780;2023-03-26T00:25:26;13.00;;;5.80;;
15929;SDS011;8064;51.142;4.780;2023-03-26T00:27:52;18.30;;;5.80;;
15929;SDS011;8064;51.142;4.780;2023-03-26T00:30:18;19.00;;;6.10;;
15929;SDS011;8064;51.142;4.780;2023-03-26T00:32:44;20.70;;;6.50;;
15929;SDS011;8064;51.142;4.780;2023-03-26T00:35:10;16.30;;;6.30;;
15929;SDS011;8064;51.142;4.780;2023-03-26T00:37:37;17.00;;;6.10;;
15929;SDS011;8064;51.142;4.780;2023-03-26T00:40:06;20.00;;;6.87;;
15929;SDS011;8064;51.142;4.780;2023-03-26T00:42:35;18.03;;;6.63;;
15929;SDS011;8064;51.142;4.780;2023-03-26T00:45:03;18.30;;;6.13;;
15929;SDS011;8064;51.142;4.780;2023-03-26T00:47:31;21.23;;;5.97;;
15929;SDS011;8064;51.142;4.780;2023-03-26T00:49:58;13.20;;;6.00;;
15929;SDS011;8064;51.142;4.780;2023-03-26T00:52:24;15.77;;;6.03;;
15929;SDS011;8064;51.142;4.780;2023-03-26T00:54:52;16.03;;;5.87;;
15929;SDS011;8064;51.142;4.780;2023-03-26T00:57:19;21.73;;;6.33;;
15929;SDS011;8064;51.142;4.780;2023-03-26T00:59:46;18.63;;;6.40;;
15929;SDS011;8064;51.142;4.780;2023-03-26T01:02:13;16.07;;;6.60;;
15929;SDS011;8064;51.142;4.780;2023-03-26T01:04:44;17.20;;;6.43;;
15929;SDS011;8064;51.142;4.780;2023-03-26T01:07:12;14.97;;;5.53;;
15929;SDS011;8064;51.142;4.780;2023-03-26T01:09:45;20.47;;;6.23;;
15929;SDS011;8064;51.142;4.780;2023-03-26T01:12:19;19.90;;;6.40;;
15929;SDS011;8064;51.142;4.780;2023-03-26T01:14:47;13.00;;;5.83;;
15929;SDS011;8064;51.142;4.780;2023-03-26T01:17:14;17.83;;;6.07;;
15929;SDS011;8064;51.142;4.780;2023-03-26T01:22:09;13.53;;;6.00;;
15929;SDS011;8064;51.142;4.780;2023-03-26T01:24:39;14.63;;;5.87;;
15929;SDS011;8064;51.142;4.780;2023-03-26T01:30:06;13.70;;;5.07;;
15929;SDS011;8064;51.142;4.780;2023-03-26T01:32:47;16.40;;;5.13;;
15929;SDS011;8064;51.142;4.780;2023-03-26T01:35:41;14.70;;;4.97;;
15929;SDS011;8064;51.142;4.780;2023-03-26T01:38:26;15.73;;;4.87;;
15929;SDS011;8064;51.142;4.780;2023-03-26T01:44:02;15.43;;;5.17;;
15929;SDS011;8064;51.142;4.780;2023-03-26T01:46:35;13.53;;;4.80;;
15929;SDS011;8064;51.142;4.780;2023-03-26T01:49:03;14.23;;;4.77;;
15929;SDS011;8064;51.142;4.780;2023-03-26T01:51:31;13.50;;;4.67;;
15929;SDS011;8064;51.142;4.780;2023-03-26T01:53:59;17.87;;;4.50;;
15929;SDS011;8064;51.142;4.780;2023-03-26T01:56:30;14.97;;;5.30;;
15929;SDS011;8064;51.142;4.780;2023-03-26T01:59:07;15.87;;;4.73;;
15929;SDS011;8064;51.142;4.780;2023-03-26T02:04:48;14.87;;;4.60;;
15929;SDS011;8064;51.142;4.780;2023-03-26T02:10:06;14.70;;;4.20;;
15929;SDS011;8064;51.142;4.780;2023-03-26T02:12:51;11.83;;;4.10;;
15929;SDS011;8064;51.142;4.780;2023-03-26T02:15:18;15.10;;;4.70;;
15929;SDS011;8064;51.142;4.780;2023-03-26T02:17:44;10.03;;;4.53;;
15929;SDS011;8064;51.142;4.780;2023-03-26T02:20:11;14.93;;;4.70;;
15929;SDS011;8064;51.142;4.780;2023-03-26T02:22:39;11.93;;;4.13;;
15929;SDS011;8064;51.142;4.780;2023-03-26T02:25:10;13.30;;;4.97;;
15929;SDS011;8064;51.142;4.780;2023-03-26T02:27:37;9.60;;;4.47;;
15929;SDS011;8064;51.142;4.780;2023-03-26T02:30:05;13.40;;;4.60;;
15929;SDS011;8064;51.142;4.780;2023-03-26T02:32:34;16.03;;;4.80;;
15929;SDS011;8064;51.142;4.780;2023-03-26T02:35:00;11.77;;;4.97;;
15929;SDS011;8064;51.142;4.780;2023-03-26T02:37:26;13.83;;;4.40;;
15929;SDS011;8064;51.142;4.780;2023-03-26T02:39:54;9.70;;;4.40;;
15929;SDS011;8064;51.142;4.780;2023-03-26T02:42:20;17.20;;;4.50;;
15929;SDS011;8064;51.142;4.780;2023-03-26T02:44:46;15.63;;;4.53;;
15929;SDS011;8064;51.142;4.780;2023-03-26T02:47:12;12.83;;;4.60;;
15929;SDS011;8064;51.142;4.780;2023-03-26T02:49:38;12.97;;;5.23;;
15929;SDS011;8064;51.142;4.780;2023-03-26T02:52:03;15.90;;;4.73;;
15929;SDS011;8064;51.142;4.780;2023-03-26T02:54:30;15.43;;;4.63;;
15929;SDS011;8064;51.142;4.780;2023-03-26T02:56:58;14.83;;;4.93;;
15929;SDS011;8064;51.142;4.780;2023-03-26T02:59:24;14.03;;;4.67;;
15929;SDS011;8064;51.142;4.780;2023-03-26T03:01:50;11.57;;;5.00;;
15929;SDS011;8064;51.142;4.780;2023-03-26T03:04:15;12.80;;;4.07;;
15929;SDS011;8064;51.142;4.780;2023-03-26T03:06:42;12.63;;;4.40;;
15929;SDS011;8064;51.142;4.780;2023-03-26T03:09:09;10.20;;;4.37;;
15929;SDS011;8064;51.142;4.780;2023-03-26T03:11:36;12.13;;;4.57;;
15929;SDS011;8064;51.142;4.780;2023-03-26T03:14:03;14.67;;;5.13;;
15929;SDS011;8064;51.142;4.780;2023-03-26T03:16:29;9.97;;;3.67;;
15929;SDS011;8064;51.142;4.780;2023-03-26T03:18:55;10.30;;;4.17;;
15929;SDS011;8064;51.142;4.780;2023-03-26T03:21:22;12.53;;;4.17;;
15929;SDS011;8064;51.142;4.780;2023-03-26T03:23:49;16.27;;;4.37;;
15929;SDS011;8064;51.142;4.780;2023-03-26T03:26:16;10.63;;;4.97;;
15929;SDS011;8064;51.142;4.780;2023-03-26T03:28:46;9.37;;;4.03;;
15929;SDS011;8064;51.142;4.780;2023-03-26T03:31:13;10.40;;;4.67;;
15929;SDS011;8064;51.142;4.780;2023-03-26T03:33:39;10.33;;;4.77;;
15929;SDS011;8064;51.142;4.780;2023-03-26T03:36:07;13.37;;;4.23;;
15929;SDS011;8064;51.142;4.780;2023-03-26T03:38:36;16.63;;;4.30;;
15929;SDS011;8064;51.142;4.780;2023-03-26T03:41:04;11.37;;;4.13;;
15929;SDS011;8064;51.142;4.780;2023-03-26T03:43:30;15.70;;;4.90;;
15929;SDS011;8064;51.142;4.780;2023-03-26T03:45:57;11.20;;;4.60;;
15929;SDS011;8064;51.142;4.780;2023-03-26T03:48:23;9.80;;;4.30;;
15929;SDS011;8064;51.142;4.780;2023-03-26T03:50:49;13.83;;;4.90;;
15929;SDS011;8064;51.142;4.780;2023-03-26T03:53:15;13.30;;;4.47;;
15929;SDS011;8064;51.142;4.780;2023-03-26T03:55:42;12.40;;;4.87;;
15929;SDS011;8064;51.142;4.780;2023-03-26T03:58:17;12.10;;;4.97;;
15929;SDS011;8064;51.142;4.780;2023-03-26T04:00:47;14.80;;;4.40;;
15929;SDS011;8064;51.142;4.780;2023-03-26T04:03:14;14.97;;;4.30;;
15929;SDS011;8064;51.142;4.780;2023-03-26T04:05:39;10.37;;;4.20;;
15929;SDS011;8064;51.142;4.780;2023-03-26T04:08:06;9.70;;;4.00;;
15929;SDS011;8064;51.142;4.780;2023-03-26T04:10:31;9.90;;;4.33;;
15929;SDS011;8064;51.142;4.780;2023-03-26T04:12:57;13.50;;;4.87;;
15929;SDS011;8064;51.142;4.780;2023-03-26T04:15:23;12.50;;;3.77;;
15929;SDS011;8064;51.142;4.780;2023-03-26T04:17:48;11.77;;;4.13;;
15929;SDS011;8064;51.142;4.780;2023-03-26T04:20:16;15.20;;;4.90;;
15929;SDS011;8064;51.142;4.780;2023-03-26T04:22:43;14.53;;;4.63;;
15929;SDS011;8064;51.142;4.780;2023-03-26T04:25:10;16.70;;;5.07;;
15929;SDS011;8064;51.142;4.780;2023-03-26T04:27:37;14.23;;;4.03;;
15929;SDS011;8064;51.142;4.780;2023-03-26T04:30:06;13.03;;;4.60;;
15929;SDS011;8064;51.142;4.780;2023-03-26T04:32:34;11.47;;;4.27;;
15929;SDS011;8064;51.142;4.780;2023-03-26T04:35:02;13.77;;;4.40;;
15929;SDS011;8064;51.142;4.780;2023-03-26T04:37:30;11.87;;;5.87;;
15929;SDS011;8064;51.142;4.780;2023-03-26T04:40:03;11.90;;;4.30;;
15929;SDS011;8064;51.142;4.780;2023-03-26T04:42:33;11.57;;;4.73;;
15929;SDS011;8064;51.142;4.780;2023-03-26T04:45:01;12.53;;;4.83;;
15929;SDS011;8064;51.142;4.780;2023-03-26T04:47:28;11.53;;;4.50;;
15929;SDS011;8064;51.142;4.780;2023-03-26T04:49:54;17.43;;;5.47;;
15929;SDS011;8064;51.142;4.780;2023-03-26T04:52:20;13.87;;;4.57;;
15929;SDS011;8064;51.142;4.780;2023-03-26T04:54:46;9.90;;;4.20;;
15929;SDS011;8064;51.142;4.780;2023-03-26T04:57:14;13.63;;;4.50;;
15929;SDS011;8064;51.142;4.780;2023-03-26T04:59:42;13.03;;;4.80;;
15929;SDS011;8064;51.142;4.780;2023-03-26T05:02:09;11.53;;;4.30;;
15929;SDS011;8064;51.142;4.780;2023-03-26T05:04:37;13.30;;;4.70;;
15929;SDS011;8064;51.142;4.780;2023-03-26T05:07:03;9.80;;;4.40;;
15929;SDS011;8064;51.142;4.780;2023-03-26T05:09:29;11.50;;;4.60;;
15929;SDS011;8064;51.142;4.780;2023-03-26T05:11:55;11.20;;;4.10;;
15929;SDS011;8064;51.142;4.780;2023-03-26T05:14:22;15.57;;;4.30;;
15929;SDS011;8064;51.142;4.780;2023-03-26T05:16:48;10.93;;;4.27;;
15929;SDS011;8064;51.142;4.780;2023-03-26T05:19:17;13.57;;;4.73;;
15929;SDS011;8064;51.142;4.780;2023-03-26T05:21:43;11.87;;;4.20;;
15929;SDS011;8064;51.142;4.780;2023-03-26T05:24:10;9.90;;;3.80;;
15929;SDS011;8064;51.142;4.780;2023-03-26T05:26:36;16.20;;;4.20;;
15929;SDS011;8064;51.142;4.780;2023-03-26T05:29:02;13.87;;;4.27;;
15929;SDS011;8064;51.142;4.780;2023-03-26T05:31:29;13.43;;;4.57;;
15929;SDS011;8064;51.142;4.780;2023-03-26T05:33:55;10.30;;;4.87;;
15929;SDS011;8064;51.142;4.780;2023-03-26T05:36:22;11.70;;;4.37;;
15929;SDS011;8064;51.142;4.780;2023-03-26T05:38:48;10.77;;;4.10;;
15929;SDS011;8064;51.142;4.780;2023-03-26T05:41:16;10.30;;;4.00;;
15929;SDS011;8064;51.142;4.780;2023-03-26T05:43:42;7.90;;;3.70;;
15929;SDS011;8064;51.142;4.780;2023-03-26T05:46:09;9.73;;;4.43;;
15929;SDS011;8064;51.142;4.780;2023-03-26T05:48:36;10.33;;;4.67;;
15929;SDS011;8064;51.142;4.780;2023-03-26T05:51:02;13.93;;;5.33;;
15929;SDS011;8064;51.142;4.780;2023-03-26T05:53:29;11.60;;;4.57;;
15929;SDS011;8064;51.142;4.780;2023-03-26T05:55:55;12.43;;;4.43;;
15929;SDS011;8064;51.142;4.780;2023-03-26T05:58:23;10.80;;;4.40;;
15929;SDS011;8064;51.142;4.780;2023-03-26T06:03:41;12.33;;;4.33;;
15929;SDS011;8064;51.142;4.780;2023-03-26T06:06:09;9.20;;;4.27;;
15929;SDS011;8064;51.142;4.780;2023-03-26T06:08:40;10.77;;;4.13;;
15929;SDS011;8064;51.142;4.780;2023-03-26T06:11:21;9.93;;;5.03;;
15929;SDS011;8064;51.142;4.780;2023-03-26T06:13:47;8.90;;;4.20;;
15929;SDS011;8064;51.142;4.780;2023-03-26T06:16:13;10.33;;;4.30;;
15929;SDS011;8064;51.142;4.780;2023-03-26T06:18:41;6.43;;;4.67;;
15929;SDS011;8064;51.142;4.780;2023-03-26T06:21:07;13.30;;;4.70;;
15929;SDS011;8064;51.142;4.780;2023-03-26T06:23:32;7.30;;;4.10;;
15929;SDS011;8064;51.142;4.780;2023-03-26T06:25:58;12.23;;;4.40;;
15929;SDS011;8064;51.142;4.780;2023-03-26T06:28:25;13.07;;;4.43;;
15929;SDS011;8064;51.142;4.780;2023-03-26T06:30:50;12.10;;;4.70;;
15929;SDS011;8064;51.142;4.780;2023-03-26T06:33:16;11.80;;;4.50;;
15929;SDS011;8064;51.142;4.780;2023-03-26T06:35:42;13.07;;;4.37;;
15929;SDS011;8064;51.142;4.780;2023-03-26T06:38:09;10.83;;;4.80;;
15929;SDS011;8064;51.142;4.780;2023-03-26T06:40:35;19.47;;;5.50;;
15929;SDS011;8064;51.142;4.780;2023-03-26T06:43:02;10.27;;;4.17;;
15929;SDS011;8064;51.142;4.780;2023-03-26T06:45:28;14.20;;;5.83;;
15929;SDS011;8064;51.142;4.780;2023-03-26T06:47:55;9.00;;;4.10;;
15929;SDS011;8064;51.142;4.780;2023-03-26T06:50:21;8.73;;;4.30;;
15929;SDS011;8064;51.142;4.780;2023-03-26T06:52:46;14.47;;;4.67;;
15929;SDS011;8064;51.142;4.780;2023-03-26T06:55:14;10.70;;;4.20;;
15929;SDS011;8064;51.142;4.780;2023-03-26T06:57:40;12.07;;;4.43;;
15929;SDS011;8064;51.142;4.780;2023-03-26T07:00:09;9.13;;;4.50;;
15929;SDS011;8064;51.142;4.780;2023-03-26T07:02:35;9.47;;;4.07;;
15929;SDS011;8064;51.142;4.780;2023-03-26T07:05:01;10.83;;;3.97;;
15929;SDS011;8064;51.142;4.780;2023-03-26T07:07:27;8.63;;;4.73;;
15929;SDS011;8064;51.142;4.780;2023-03-26T07:09:53;9.40;;;4.20;;
15929;SDS011;8064;51.142;4.780;2023-03-26T07:12:19;5.03;;;3.70;;
15929;SDS011;8064;51.142;4.780;2023-03-26T07:14:44;8.63;;;4.37;;
15929;SDS011;8064;51.142;4.780;2023-03-26T07:17:10;6.90;;;4.07;;
15929;SDS011;8064;51.142;4.780;2023-03-26T07:19:36;9.67;;;3.90;;
15929;SDS011;8064;51.142;4.780;2023-03-26T07:22:01;6.03;;;4.10;;
15929;SDS011;8064;51.142;4.780;2023-03-26T07:24:27;8.73;;;3.23;;
15929;SDS011;8064;51.142;4.780;2023-03-26T07:26:56;7.63;;;3.53;;
15929;SDS011;8064;51.142;4.780;2023-03-26T07:29:26;11.57;;;4.17;;
15929;SDS011;8064;51.142;4.780;2023-03-26T07:32:04;7.90;;;4.30;;
15929;SDS011;8064;51.142;4.780;2023-03-26T07:43:22;7.87;;;3.80;;
15929;SDS011;8064;51.142;4.780;2023-03-26T07:46:05;8.17;;;3.77;;
15929;SDS011;8064;51.142;4.780;2023-03-26T07:48:38;7.27;;;4.10;;
15929;SDS011;8064;51.142;4.780;2023-03-26T07:51:06;6.90;;;3.73;;
15929;SDS011;8064;51.142;4.780;2023-03-26T07:53:33;7.03;;;3.27;;
15929;SDS011;8064;51.142;4.780;2023-03-26T08:00:55;6.93;;;3.47;;
15929;SDS011;8064;51.142;4.780;2023-03-26T08:03:30;5.67;;;3.23;;
15929;SDS011;8064;51.142;4.780;2023-03-26T08:06:17;4.97;;;3.93;;
15929;SDS011;8064;51.142;4.780;2023-03-26T08:09:04;7.10;;;3.10;;
15929;SDS011;8064;51.142;4.780;2023-03-26T08:14:53;8.03;;;3.67;;
15929;SDS011;8064;51.142;4.780;2023-03-26T08:17:28;4.67;;;2.87;;
15929;SDS011;8064;51.142;4.780;2023-03-26T08:31:04;3.70;;;2.90;;
15929;SDS011;8064;51.142;4.780;2023-03-26T08:33:33;6.77;;;3.30;;
15929;SDS011;8064;51.142;4.780;2023-03-26T08:36:00;7.83;;;3.50;;
15929;SDS011;8064;51.142;4.780;2023-03-26T08:38:26;5.20;;;3.43;;
15929;SDS011;8064;51.142;4.780;2023-03-26T08:55:09;7.10;;;3.03;;
15929;SDS011;8064;51.142;4.780;2023-03-26T08:57:43;4.57;;;2.93;;
15929;SDS011;8064;51.142;4.780;2023-03-26T09:08:57;4.47;;;3.20;;
15929;SDS011;8064;51.142;4.780;2023-03-26T09:11:50;3.93;;;2.83;;
15929;SDS011;8064;51.142;4.780;2023-03-26T09:14:52;5.83;;;2.83;;
15929;SDS011;8064;51.142;4.780;2023-03-26T09:25:49;5.13;;;2.83;;
15929;SDS011;8064;51.142;4.780;2023-03-26T09:39:25;7.37;;;3.90;;
15929;SDS011;8064;51.142;4.780;2023-03-26T09:42:16;5.17;;;3.60;;
15929;SDS011;8064;51.142;4.780;2023-03-26T09:45:06;4.97;;;3.73;;
15929;SDS011;8064;51.142;4.780;2023-03-26T09:58:52;6.43;;;3.20;;
15929;SDS011;8064;51.142;4.780;2023-03-26T10:04:38;3.83;;;3.13;;
15929;SDS011;8064;51.142;4.780;2023-03-26T10:07:31;3.80;;;3.40;;
15929;SDS011;8064;51.142;4.780;2023-03-26T10:10:24;4.93;;;3.20;;
15929;SDS011;8064;51.142;4.780;2023-03-26T10:24:47;4.63;;;3.27;;
15929;SDS011;8064;51.142;4.780;2023-03-26T10:27:41;3.43;;;3.13;;
15929;SDS011;8064;51.142;4.780;2023-03-26T10:55:37;4.13;;;3.30;;
15929;SDS011;8064;51.142;4.780;2023-03-26T11:00:52;3.17;;;2.87;;
15929;SDS011;8064;51.142;4.780;2023-03-26T11:20:02;3.50;;;3.20;;
15929;SDS011;8064;51.142;4.780;2023-03-26T11:33:41;3.30;;;3.00;;
15929;SDS011;8064;51.142;4.780;2023-03-26T11:36:11;3.40;;;3.20;;
15929;SDS011;8064;51.142;4.780;2023-03-26T11:38:41;3.70;;;3.40;;
15929;SDS011;8064;51.142;4.780;2023-03-26T11:41:22;4.13;;;3.20;;
15929;SDS011;8064;51.142;4.780;2023-03-26T11:44:12;3.03;;;2.90;;
15929;SDS011;8064;51.142;4.780;2023-03-26T11:46:45;3.27;;;3.17;;
15929;SDS011;8064;51.142;4.780;2023-03-26T11:49:15;3.00;;;2.90;;
15929;SDS011;8064;51.142;4.780;2023-03-26T11:51:45;3.70;;;3.47;;
15929;SDS011;8064;51.142;4.780;2023-03-26T11:54:11;3.23;;;2.93;;
15929;SDS011;8064;51.142;4.780;2023-03-26T11:59:36;3.13;;;2.93;;
15929;SDS011;8064;51.142;4.780;2023-03-26T12:04:44;3.63;;;3.43;;
15929;SDS011;8064;51.142;4.780;2023-03-26T12:10:15;3.23;;;2.70;;
15929;SDS011;8064;51.142;4.780;2023-03-26T12:12:46;3.40;;;3.20;;
15929;SDS011;8064;51.142;4.780;2023-03-26T12:15:14;3.60;;;3.30;;
15929;SDS011;8064;51.142;4.780;2023-03-26T12:17:43;3.97;;;3.77;;
15929;SDS011;8064;51.142;4.780;2023-03-26T12:22:49;5.43;;;5.13;;
15929;SDS011;8064;51.142;4.780;2023-03-26T12:33:28;4.07;;;3.77;;
15929;SDS011;8064;51.142;4.780;2023-03-26T12:35:58;4.00;;;3.80;;
15929;SDS011;8064;51.142;4.780;2023-03-26T12:38:40;4.20;;;4.00;;
15929;SDS011;8064;51.142;4.780;2023-03-26T12:41:08;3.83;;;3.63;;
15929;SDS011;8064;51.142;4.780;2023-03-26T12:43:38;4.20;;;4.00;;
15929;SDS011;8064;51.142;4.780;2023-03-26T12:46:25;4.20;;;4.00;;
15929;SDS011;8064;51.142;4.780;2023-03-26T12:48:57;4.10;;;3.90;;
15929;SDS011;8064;51.142;4.780;2023-03-26T13:05:59;4.23;;;4.03;;
15929;SDS011;8064;51.142;4.780;2023-03-26T13:33:06;5.20;;;5.00;;
15929;SDS011;8064;51.142;4.780;2023-03-26T13:35:40;4.33;;;4.13;;
15929;SDS011;8064;51.142;4.780;2023-03-26T13:44:11;5.10;;;4.90;;
15929;SDS011;8064;51.142;4.780;2023-03-26T13:46:42;5.33;;;5.03;;
15929;SDS011;8064;51.142;4.780;2023-03-26T13:49:14;5.43;;;5.17;;
15929;SDS011;8064;51.142;4.780;2023-03-26T13:51:55;4.80;;;4.60;;
15929;SDS011;8064;51.142;4.780;2023-03-26T13:54:29;4.93;;;4.67;;
15929;SDS011;8064;51.142;4.780;2023-03-26T13:59:30;4.70;;;4.40;;
15929;SDS011;8064;51.142;4.780;2023-03-26T14:02:00;4.90;;;4.70;;
15929;SDS011;8064;51.142;4.780;2023-03-26T14:04:34;4.77;;;4.57;;
15929;SDS011;8064;51.142;4.780;2023-03-26T14:07:19;4.90;;;4.60;;
15929;SDS011;8064;51.142;4.780;2023-03-26T14:09:52;5.20;;;4.90;;
15929;SDS011;8064;51.142;4.780;2023-03-26T14:15:26;4.97;;;4.63;;
15929;SDS011;8064;51.142;4.780;2023-03-26T14:17:57;4.90;;;4.67;;
15929;SDS011;8064;51.142;4.780;2023-03-26T14:46:04;6.33;;;5.93;;
15929;SDS011;8064;51.142;4.780;2023-03-26T14:54:40;6.83;;;6.33;;
15929;SDS011;8064;51.142;4.780;2023-03-26T15:14:33;5.57;;;5.07;;
15929;SDS011;8064;51.142;4.780;2023-03-26T15:17:27;6.17;;;5.67;;
15929;SDS011;8064;51.142;4.780;2023-03-26T15:23:17;10.93;;;6.60;;
15929;SDS011;8064;51.142;4.780;2023-03-26T15:29:12;10.27;;;6.00;;
15929;SDS011;8064;51.142;4.780;2023-03-26T15:43:14;17.23;;;7.57;;
15929;SDS011;8064;51.142;4.780;2023-03-26T15:45:45;16.07;;;7.87;;
15929;SDS011;8064;51.142;4.780;2023-03-26T16:02:42;13.53;;;6.43;;
15929;SDS011;8064;51.142;4.780;2023-03-26T16:17:00;12.10;;;5.47;;
15929;SDS011;8064;51.142;4.780;2023-03-26T16:19:32;14.77;;;5.73;;
15929;SDS011;8064;51.142;4.780;2023-03-26T16:22:15;9.80;;;5.90;;
15929;SDS011;8064;51.142;4.780;2023-03-26T16:25:27;15.50;;;5.87;;
15929;SDS011;8064;51.142;4.780;2023-03-26T16:30:43;12.83;;;5.73;;
15929;SDS011;8064;51.142;4.780;2023-03-26T16:33:35;10.73;;;5.73;;
15929;SDS011;8064;51.142;4.780;2023-03-26T16:41:25;11.20;;;5.73;;
15929;SDS011;8064;51.142;4.780;2023-03-26T16:55:32;11.57;;;5.70;;
15929;SDS011;8064;51.142;4.780;2023-03-26T17:09:23;15.63;;;6.03;;
15929;SDS011;8064;51.142;4.780;2023-03-26T17:12:00;10.20;;;5.40;;
15929;SDS011;8064;51.142;4.780;2023-03-26T17:17:04;10.37;;;6.07;;
15929;SDS011;8064;51.142;4.780;2023-03-26T17:22:26;9.80;;;5.53;;
15929;SDS011;8064;51.142;4.780;2023-03-26T17:25:04;11.60;;;5.77;;
15929;SDS011;8064;51.142;4.780;2023-03-26T17:27:45;9.37;;;5.83;;
15929;SDS011;8064;51.142;4.780;2023-03-26T17:33:20;11.87;;;5.77;;
15929;SDS011;8064;51.142;4.780;2023-03-26T17:39:20;11.73;;;6.73;;
15929;SDS011;8064;51.142;4.780;2023-03-26T17:44:57;8.53;;;5.60;;
15929;SDS011;8064;51.142;4.780;2023-03-26T17:49:57;14.80;;;5.30;;
15929;SDS011;8064;51.142;4.780;2023-03-26T17:55:18;9.37;;;5.73;;
15929;SDS011;8064;51.142;4.780;2023-03-26T17:57:51;7.77;;;5.33;;
15929;SDS011;8064;51.142;4.780;2023-03-26T18:00:21;9.67;;;5.93;;
15929;SDS011;8064;51.142;4.780;2023-03-26T18:02:53;8.33;;;5.57;;
15929;SDS011;8064;51.142;4.780;2023-03-26T18:05:23;9.20;;;5.37;;
15929;SDS011;8064;51.142;4.780;2023-03-26T18:07:58;7.27;;;5.03;;
15929;SDS011;8064;51.142;4.780;2023-03-26T18:16:18;6.73;;;5.23;;
15929;SDS011;8064;51.142;4.780;2023-03-26T18:19:09;9.23;;;4.93;;
15929;SDS011;8064;51.142;4.780;2023-03-26T18:21:43;8.73;;;5.20;;
15929;SDS011;8064;51.142;4.780;2023-03-26T18:24:17;6.67;;;4.97;;
15929;SDS011;8064;51.142;4.780;2023-03-26T18:26:48;8.30;;;4.77;;
15929;SDS011;8064;51.142;4.780;2023-03-26T18:32:07;7.07;;;4.73;;
15929;SDS011;8064;51.142;4.780;2023-03-26T18:34:47;10.20;;;4.93;;
15929;SDS011;8064;51.142;4.780;2023-03-26T18:37:17;7.73;;;4.60;;
15929;SDS011;8064;51.142;4.780;2023-03-26T18:42:35;10.43;;;4.03;;
15929;SDS011;8064;51.142;4.780;2023-03-26T18:45:05;12.30;;;4.87;;
15929;SDS011;8064;51.142;4.780;2023-03-26T18:47:50;12.77;;;4.87;;
15929;SDS011;8064;51.142;4.780;2023-03-26T18:50:21;11.70;;;5.57;;
15929;SDS011;8064;51.142;4.780;2023-03-26T18:52:50;11.60;;;4.73;;
15929;SDS011;8064;51.142;4.780;2023-03-26T18:55:17;10.77;;;4.33;;
15929;SDS011;8064;51.142;4.780;2023-03-26T18:57:43;8.63;;;4.23;;
15929;SDS011;8064;51.142;4.780;2023-03-26T19:02:58;7.90;;;4.17;;
15929;SDS011;8064;51.142;4.780;2023-03-26T19:05:29;11.40;;;4.27;;
15929;SDS011;8064;51.142;4.780;2023-03-26T19:07:57;7.83;;;4.23;;
15929;SDS011;8064;51.142;4.780;2023-03-26T19:10:27;7.23;;;4.07;;
15929;SDS011;8064;51.142;4.780;2023-03-26T19:12:56;8.70;;;3.97;;
15929;SDS011;8064;51.142;4.780;2023-03-26T19:15:23;8.37;;;4.20;;
15929;SDS011;8064;51.142;4.780;2023-03-26T19:17:52;9.27;;;3.23;;
15929;SDS011;8064;51.142;4.780;2023-03-26T19:20:26;7.27;;;3.57;;
15929;SDS011;8064;51.142;4.780;2023-03-26T19:22:54;10.73;;;3.70;;
15929;SDS011;8064;51.142;4.780;2023-03-26T19:25:22;10.17;;;3.17;;
15929;SDS011;8064;51.142;4.780;2023-03-26T19:27:52;8.07;;;3.60;;
15929;SDS011;8064;51.142;4.780;2023-03-26T19:30:21;9.30;;;3.47;;
15929;SDS011;8064;51.142;4.780;2023-03-26T19:32:52;6.37;;;2.93;;
15929;SDS011;8064;51.142;4.780;2023-03-26T19:35:20;9.00;;;3.47;;
15929;SDS011;8064;51.142;4.780;2023-03-26T19:37:49;7.03;;;3.23;;
15929;SDS011;8064;51.142;4.780;2023-03-26T19:40:18;10.53;;;3.83;;
15929;SDS011;8064;51.142;4.780;2023-03-26T19:42:45;6.20;;;2.50;;
15929;SDS011;8064;51.142;4.780;2023-03-26T19:47:58;8.57;;;3.20;;
15929;SDS011;8064;51.142;4.780;2023-03-26T19:50:26;7.73;;;2.60;;
15929;SDS011;8064;51.142;4.780;2023-03-26T19:58:39;10.33;;;2.87;;
15929;SDS011;8064;51.142;4.780;2023-03-26T20:01:05;4.27;;;2.70;;
15929;SDS011;8064;51.142;4.780;2023-03-26T20:03:54;7.60;;;2.67;;
15929;SDS011;8064;51.142;4.780;2023-03-26T20:06:23;7.70;;;2.70;;
15929;SDS011;8064;51.142;4.780;2023-03-26T20:08:52;10.03;;;3.20;;
15929;SDS011;8064;51.142;4.780;2023-03-26T20:11:20;9.07;;;2.83;;
15929;SDS011;8064;51.142;4.780;2023-03-26T20:13:57;11.10;;;2.70;;
15929;SDS011;8064;51.142;4.780;2023-03-26T20:18:50;9.50;;;2.90;;
15929;SDS011;8064;51.142;4.780;2023-03-26T20:21:17;9.83;;;2.60;;
15929;SDS011;8064;51.142;4.780;2023-03-26T20:23:43;8.00;;;2.60;;
15929;SDS011;8064;51.142;4.780;2023-03-26T20:26:10;4.97;;;2.47;;
15929;SDS011;8064;51.142;4.780;2023-03-26T20:28:39;6.57;;;2.27;;
15929;SDS011;8064;51.142;4.780;2023-03-26T20:31:05;6.33;;;2.50;;
15929;SDS011;8064;51.142;4.780;2023-03-26T20:33:35;9.40;;;2.77;;
15929;SDS011;8064;51.142;4.780;2023-03-26T20:36:01;8.43;;;2.67;;
15929;SDS011;8064;51.142;4.780;2023-03-26T20:38:27;9.30;;;2.57;;
15929;SDS011;8064;51.142;4.780;2023-03-26T20:40:53;5.03;;;2.77;;
15929;SDS011;8064;51.142;4.780;2023-03-26T20:43:19;7.30;;;2.87;;
15929;SDS011;8064;51.142;4.780;2023-03-26T20:45:48;8.60;;;3.00;;
15929;SDS011;8064;51.142;4.780;2023-03-26T20:48:15;10.53;;;2.67;;
15929;SDS011;8064;51.142;4.780;2023-03-26T20:50:41;11.00;;;2.90;;
15929;SDS011;8064;51.142;4.780;2023-03-26T20:53:10;7.53;;;2.73;;
15929;SDS011;8064;51.142;4.780;2023-03-26T20:55:38;8.37;;;2.67;;
15929;SDS011;8064;51.142;4.780;2023-03-26T20:58:10;12.00;;;2.83;;
15929;SDS011;8064;51.142;4.780;2023-03-26T21:00:37;7.50;;;2.67;;
15929;SDS011;8064;51.142;4.780;2023-03-26T21:03:03;8.80;;;2.63;;
15929;SDS011;8064;51.142;4.780;2023-03-26T21:05:29;8.73;;;2.37;;
15929;SDS011;8064;51.142;4.780;2023-03-26T21:07:56;7.60;;;2.33;;
15929;SDS011;8064;51.142;4.780;2023-03-26T21:10:24;8.10;;;2.73;;
15929;SDS011;8064;51.142;4.780;2023-03-26T21:12:55;5.57;;;2.37;;
15929;SDS011;8064;51.142;4.780;2023-03-26T21:15:26;6.50;;;2.40;;
15929;SDS011;8064;51.142;4.780;2023-03-26T21:17:53;7.40;;;2.83;;
15929;SDS011;8064;51.142;4.780;2023-03-26T21:20:20;7.97;;;2.53;;
15929;SDS011;8064;51.142;4.780;2023-03-26T21:22:49;8.57;;;2.97;;
15929;SDS011;8064;51.142;4.780;2023-03-26T21:28:33;6.80;;;2.30;;
15929;SDS011;8064;51.142;4.780;2023-03-26T21:31:03;7.27;;;2.33;;
15929;SDS011;8064;51.142;4.780;2023-03-26T21:33:30;8.90;;;2.80;;
15929;SDS011;8064;51.142;4.780;2023-03-26T21:35:57;6.17;;;2.80;;
15929;SDS011;8064;51.142;4.780;2023-03-26T21:38:24;5.20;;;2.50;;
15929;SDS011;8064;51.142;4.780;2023-03-26T21:40:51;9.97;;;3.03;;
15929;SDS011;8064;51.142;4.780;2023-03-26T21:43:19;10.83;;;3.07;;
15929;SDS011;8064;51.142;4.780;2023-03-26T21:45:45;4.23;;;2.03;;
15929;SDS011;8064;51.142;4.780;2023-03-26T21:48:13;6.83;;;2.67;;
15929;SDS011;8064;51.142;4.780;2023-03-26T21:50:40;9.53;;;2.80;;
15929;SDS011;8064;51.142;4.780;2023-03-26T21:53:08;4.87;;;2.33;;
15929;SDS011;8064;51.142;4.780;2023-03-26T21:55:42;6.77;;;2.30;;
15929;SDS011;8064;51.142;4.780;2023-03-26T21:58:34;4.03;;;2.23;;
15929;SDS011;8064;51.142;4.780;2023-03-26T22:06:15;7.57;;;2.50;;
15929;SDS011;8064;51.142;4.780;2023-03-26T22:08:47;5.90;;;2.60;;
15929;SDS011;8064;51.142;4.780;2023-03-26T22:11:13;9.83;;;2.53;;